Time;durP1;ratioP1;P1;durP2;ratioP2;P2;SDS_P1;SDS_P2;PMS_P1;PMS_P2;Temp;Humidity;BMP_temperature;BMP_pressure;BME280_temperature;BME280_humidity;BME280_pressure;Samples;Min_cycle;Max_cycle;Signal;HPM_P1;HPM_P2
2022/03/22 12:16:39;;;;;;;68.70;29.90;;;;;;;18.33;27.48;99831.24;102945;1309;545211;-78
2022/03/22 12:19:07;;;;;;;45.10;37.10;;;;;;;18.43;27.52;99831.98;105276;1284;22551;-77
2022/03/22 12:21:35;;;;;;;35.40;25.40;;;;;;;18.55;26.30;99828.92;105877;1283;25541;-78
2022/03/22 12:24:06;;;;;;;38.00;25.00;;;;;;;18.70;26.72;99828.98;105716;1283;25491;-76
2022/03/22 12:26:36;;;;;;;33.50;24.80;;;;;;;18.88;27.00;99825.00;105286;1284;22628;-77
2022/03/22 12:29:04;;;;;;;33.30;25.90;;;;;;;19.11;26.81;99822.00;105599;1282;22561;-78
2022/03/22 12:31:31;;;;;;;40.10;26.00;;;;;;;19.10;26.56;99824.96;106042;1280;22552;-75
2022/03/22 12:34:00;;;;;;;29.80;26.40;;;;;;;19.15;26.63;99821.22;105779;1281;26629;-79
2022/03/22 12:36:27;;;;;;;29.90;26.40;;;;;;;19.19;25.55;99817.05;105714;1281;24421;-77
2022/03/22 12:38:56;;;;;;;28.20;25.30;;;;;;;19.20;25.91;99813.06;106361;1281;23031;-78
2022/03/22 12:41:25;;;;;;;33.30;25.10;;;;;;;19.28;25.92;99815.13;106378;1278;23982;-77
2022/03/22 12:43:53;;;;;;;29.40;24.30;;;;;;;19.44;25.83;99811.36;106396;1281;25298;-78
2022/03/22 12:46:21;;;;;;;36.30;26.60;;;;;;;19.66;25.70;99810.52;106404;1278;22731;-77
2022/03/22 12:48:54;;;;;;;84.70;29.70;;;;;;;19.82;25.82;99804.41;105911;1281;24234;-80
2022/03/22 12:51:25;;;;;;;38.60;26.20;;;;;;;19.94;25.37;99800.42;106747;1274;22666;-79
2022/03/22 12:53:53;;;;;;;51.70;27.80;;;;;;;19.90;25.24;99800.53;106033;1274;22532;-79
2022/03/22 12:56:21;;;;;;;57.80;27.70;;;;;;;19.90;25.12;99799.52;106581;1274;22585;-75
2022/03/22 12:58:50;;;;;;;31.40;26.70;;;;;;;19.98;24.49;99796.83;106043;1274;24166;-77
2022/03/22 13:01:18;;;;;;;33.50;27.30;;;;;;;20.00;24.84;99791.48;106062;1274;22707;-77
2022/03/22 13:03:46;;;;;;;48.50;25.60;;;;;;;20.07;24.73;99794.55;106171;1274;22556;-77
2022/03/22 13:06:14;;;;;;;65.50;27.90;;;;;;;20.11;24.69;99791.60;106543;1275;22690;-78
2022/03/22 13:11:32;;;;;;;34.60;26.40;;;;;;;20.49;24.90;99788.37;105933;1274;26224;-76
2022/03/22 13:16:55;;;;;;;38.10;25.70;;;;;;;20.76;24.46;99783.56;106584;1277;24126;-76
2022/03/22 13:19:23;;;;;;;;;;;;;;;20.92;24.37;99784.67;105979;1277;22530;-77
2022/03/22 13:21:51;;;;;;;30.60;25.00;;;;;;;20.96;24.19;99780.45;106037;1277;22703;-77
2022/03/22 13:24:24;;;;;;;32.50;23.80;;;;;;;20.99;24.14;99780.79;105974;1277;22608;-78
2022/03/22 13:26:55;;;;;;;32.00;27.50;;;;;;;21.16;24.32;99773.17;106602;1277;22739;-78
2022/03/22 13:29:26;;;;;;;28.60;25.60;;;;;;;21.28;23.98;99769.55;106532;1277;22716;-78
2022/03/22 13:31:59;;;;;;;28.30;24.20;;;;;;;21.42;24.02;99770.89;106556;1277;22906;-78
2022/03/22 13:34:30;;;;;;;26.90;24.20;;;;;;;21.44;23.61;99762.48;106509;1277;24440;-77
2022/03/22 13:37:07;;;;;;;29.90;23.40;;;;;;;21.36;23.52;99763.39;106721;1277;25375;-76
2022/03/22 13:39:37;;;;;;;27.20;23.20;;;;;;;21.47;23.61;99763.03;106858;1274;24319;-77
2022/03/22 13:42:13;;;;;;;43.30;23.40;;;;;;;21.63;23.30;99758.23;106109;1274;25442;-76
2022/03/22 13:44:58;;;;;;;52.30;24.30;;;;;;;21.73;23.29;99758.90;106079;1274;26244;-77
2022/03/22 13:47:35;;;;;;;27.20;24.00;;;;;;;21.79;22.89;99756.88;106774;1274;25737;-77
2022/03/22 13:50:14;;;;;;;42.70;22.80;;;;;;;21.92;23.08;99757.52;106024;1274;24382;-76
2022/03/22 13:52:44;;;;;;;24.80;21.50;;;;;;;22.03;22.90;99755.67;106146;1274;22792;-75
2022/03/22 13:55:21;;;;;;;108.50;27.50;;;;;;;22.17;23.04;99751.00;106971;1274;22691;-75
2022/03/22 13:57:55;;;;;;;35.80;23.90;;;;;;;22.27;22.66;99752.27;106093;1274;25447;-78
2022/03/22 14:00:46;;;;;;;29.90;26.70;;;;;;;22.13;22.09;99753.01;106115;1274;24106;-76
2022/03/22 14:03:16;;;;;;;27.90;24.80;;;;;;;22.13;22.55;99749.25;106205;1274;22733;-77
2022/03/22 14:05:46;;;;;;;26.10;23.30;;;;;;;22.14;22.29;99744.36;106266;1274;24303;-78
2022/03/22 14:08:16;;;;;;;27.00;24.10;;;;;;;22.14;22.15;99742.53;106081;1274;24076;-77
2022/03/22 14:10:46;;;;;;;32.20;24.70;;;;;;;22.14;21.92;99743.19;106764;1274;25524;-78
2022/03/22 14:13:16;;;;;;;27.80;24.60;;;;;;;22.14;21.92;99735.98;106744;1274;25719;-80
2022/03/22 14:15:45;;;;;;;44.50;37.00;;;;;;;22.14;22.19;99737.59;106123;1276;22550;-80
2022/03/22 14:18:13;;;;;;;38.60;25.40;;;;;;;22.28;22.07;99738.33;106356;1271;26715;-80
2022/03/22 14:20:41;;;;;;;31.60;26.60;;;;;;;22.22;21.82;99737.18;106275;1271;22686;-82
2022/03/22 14:23:10;;;;;;;29.80;24.30;;;;;;;22.09;21.65;99736.70;106246;1271;22540;-79
2022/03/22 14:25:38;;;;;;;27.50;24.70;;;;;;;22.26;21.62;99737.64;106813;1271;25486;-78
2022/03/22 14:28:06;;;;;;;31.90;24.50;;;;;;;22.38;21.30;99736.38;106244;1271;22729;-78
2022/03/22 14:30:37;;;;;;;28.50;23.50;;;;;;;22.48;21.22;99736.45;106261;1271;22565;-79
2022/03/22 14:33:14;;;;;;;34.90;23.40;;;;;;;22.53;21.17;99732.34;106416;1271;22871;-79
2022/03/22 14:35:51;;;;;;;25.90;23.20;;;;;;;22.48;21.30;99729.87;106809;1271;24230;-79
2022/03/22 14:38:20;;;;;;;26.30;23.70;;;;;;;22.45;21.35;99727.48;106752;1271;24240;-79
2022/03/22 14:40:51;;;;;;;37.50;25.80;;;;;;;22.61;21.29;99724.87;106886;1271;22649;-78
2022/03/22 14:43:24;;;;;;;27.50;24.30;;;;;;;22.60;20.91;99725.48;106276;1271;22647;-78
2022/03/22 14:45:55;;;;;;;31.20;26.50;;;;;;;22.65;21.02;99724.64;106776;1271;22691;-77
2022/03/22 14:48:24;;;;;;;26.80;23.90;;;;;;;22.74;20.81;99721.11;106915;1268;22560;-78
2022/03/22 14:50:56;;;;;;;104.40;27.80;;;;;;;22.81;21.05;99717.37;106828;1271;22553;-78
2022/03/22 14:58:58;;;;;;;116.80;27.40;;;;;;;22.36;20.24;99713.69;106781;1271;22680;-78
2022/03/22 15:01:31;;;;;;;28.20;25.00;;;;;;;22.31;20.57;99710.00;106838;1271;22708;-78
2022/03/22 15:04:02;;;;;;;39.90;23.80;;;;;;;22.45;20.73;99705.20;106539;1271;24230;-79
2022/03/22 15:06:33;;;;;;;31.70;25.10;;;;;;;22.62;20.63;99700.41;106767;1271;22707;-79
2022/03/22 15:09:03;;;;;;;42.40;25.80;;;;;;;22.72;20.25;99699.45;106868;1271;22568;-78
2022/03/22 15:11:33;;;;;;;27.60;24.80;;;;;;;22.75;20.49;99698.31;106155;1271;22614;-78
2022/03/22 15:14:01;;;;;;;27.20;24.30;;;;;;;22.70;20.52;99695.85;106773;1271;25497;-77
2022/03/22 15:16:29;;;;;;;36.70;24.50;;;;;;;22.74;20.58;99698.66;106248;1271;25665;-78
2022/03/22 15:18:57;;;;;;;37.60;24.70;;;;;;;22.78;20.51;99696.98;106761;1271;22688;-77
2022/03/22 15:21:26;;;;;;;32.90;29.10;;;;;;;22.79;20.40;99693.27;106845;1271;23024;-78
2022/03/22 15:23:54;;;;;;;31.30;28.20;;;;;;;22.66;20.34;99689.23;106883;1271;22675;-77
2022/03/22 15:26:23;;;;;;;29.00;26.10;;;;;;;22.35;20.03;99686.67;106464;1271;26940;-77
2022/03/22 15:28:50;;;;;;;32.50;25.30;;;;;;;22.15;20.11;99686.66;106981;1271;24094;-76
2022/03/22 15:31:19;;;;;;;35.80;25.80;;;;;;;22.04;20.01;99684.25;106469;1271;25389;-80
2022/03/22 15:33:47;;;;;;;28.20;25.30;;;;;;;21.95;19.89;99680.52;106737;1271;24392;-80
2022/03/22 15:36:15;;;;;;;33.70;30.20;;;;;;;21.90;20.12;99681.48;107002;1271;25425;-77
2022/03/22 15:38:43;;;;;;;31.80;26.20;;;;;;;21.87;20.04;99679.84;106222;1272;24243;-79
2022/03/22 15:41:11;;;;;;;56.30;27.10;;;;;;;21.74;20.31;99682.77;106891;1271;22568;-78
2022/03/22 15:43:39;;;;;;;27.90;24.80;;;;;;;21.75;20.07;99680.20;106439;1271;25353;-78
2022/03/22 15:46:09;;;;;;;32.50;23.10;;;;;;;21.72;20.28;99683.86;106450;1271;24352;-79
2022/03/22 15:48:37;;;;;;;28.20;25.00;;;;;;;21.70;20.26;99677.58;106564;1271;22547;-79
2022/03/22 15:51:06;;;;;;;38.30;24.60;;;;;;;21.56;20.32;99677.91;106246;1271;24269;-79
2022/03/22 15:53:34;;;;;;;31.60;24.00;;;;;;;21.50;20.35;99680.56;106176;1271;24139;-79
2022/03/22 15:56:03;;;;;;;28.60;23.80;;;;;;;21.44;20.32;99678.84;106195;1271;25233;-79
2022/03/22 15:58:31;;;;;;;33.30;22.70;;;;;;;21.46;20.49;99680.34;106134;1271;22561;-79
2022/03/22 16:00:59;;;;;;;53.30;24.60;;;;;;;21.52;20.30;99675.96;106097;1271;23557;-80
2022/03/22 16:03:27;;;;;;;28.70;23.00;;;;;;;21.59;20.21;99677.81;106107;1271;25433;-80
2022/03/22 16:05:56;;;;;;;36.30;23.30;;;;;;;21.65;20.17;99677.60;106081;1271;22537;-79
2022/03/22 16:08:24;;;;;;;53.10;23.10;;;;;;;21.63;20.20;99677.05;106093;1274;24408;-79
2022/03/22 16:10:52;;;;;;;40.00;23.80;;;;;;;21.72;20.11;99677.80;106047;1271;22876;-79
2022/03/22 16:13:20;;;;;;;35.40;25.00;;;;;;;21.72;19.81;99676.54;106637;1271;22581;-79
2022/03/22 16:15:51;;;;;;;28.30;25.50;;;;;;;21.69;19.88;99672.13;106613;1271;26503;-78
2022/03/22 16:18:20;;;;;;;36.70;25.10;;;;;;;21.68;19.86;99672.29;106555;1271;22703;-78
2022/03/22 16:20:50;;;;;;;32.40;25.20;;;;;;;21.62;20.10;99669.09;106559;1271;24231;-76
2022/03/22 16:23:19;;;;;;;34.20;26.30;;;;;;;21.55;19.87;99671.14;106527;1271;22556;-75
2022/03/22 16:25:48;;;;;;;42.90;26.00;;;;;;;21.43;19.77;99671.66;106099;1271;22674;-77
2022/03/22 16:28:18;;;;;;;33.70;25.10;;;;;;;21.32;19.97;99669.46;106210;1271;23510;-76
2022/03/22 16:30:47;;;;;;;26.20;23.40;;;;;;;21.23;20.32;99666.16;106300;1271;25249;-78
2022/03/22 16:41:41;;;;;;;28.40;25.60;;;;;;;20.51;20.35;99666.98;107279;1271;25302;-78
2022/03/22 16:44:09;;;;;;;26.00;23.40;;;;;;;20.15;20.66;99665.77;106093;1271;25206;-77
2022/03/22 16:46:38;;;;;;;31.60;25.90;;;;;;;19.72;20.93;99665.89;106347;1271;24132;-74
2022/03/22 16:49:06;;;;;;;32.70;27.70;;;;;;;19.27;21.15;99669.71;106122;1271;25620;-73
2022/03/22 16:51:36;;;;;;;31.60;28.30;;;;;;;18.80;21.23;99673.64;106217;1271;22550;-75
2022/03/22 16:54:04;;;;;;;40.70;36.40;;;;;;;18.38;21.43;99671.04;106208;1271;25354;-79
2022/03/22 16:56:35;;;;;;;70.00;61.70;;;;;;;17.98;21.29;99673.92;106097;1271;22556;-78
2022/03/22 16:59:06;;;;;;;53.80;48.10;;;;;;;17.42;21.38;99675.52;106112;1271;26699;-78
2022/03/22 17:01:34;;;;;;;61.50;55.50;;;;;;;16.89;21.76;99679.13;106138;1271;22777;-78
2022/03/22 17:04:02;;;;;;;37.10;33.10;;;;;;;16.46;21.78;99681.44;106243;1271;22544;-79
2022/03/22 17:06:31;;;;;;;33.70;30.10;;;;;;;16.06;22.02;99682.58;106561;1271;22612;-78
2022/03/22 17:08:59;;;;;;;39.60;34.00;;;;;;;15.71;22.16;99685.27;106308;1271;22786;-77
2022/03/22 17:11:28;;;;;;;38.20;34.30;;;;;;;15.33;22.47;99686.27;106562;1271;25574;-78
2022/03/22 17:13:56;;;;;;;38.70;33.70;;;;;;;14.89;22.77;99685.56;106649;1271;23123;-77
2022/03/22 17:16:26;;;;;;;40.50;36.50;;;;;;;14.47;22.76;99693.27;106283;1271;24253;-77
2022/03/22 17:18:54;;;;;;;43.10;38.60;;;;;;;14.05;22.91;99691.14;106613;1271;23999;-76
2022/03/22 17:21:25;;;;;;;62.50;56.30;;;;;;;13.61;23.74;99690.41;106403;1272;22546;-76
2022/03/22 17:23:54;;;;;;;62.40;53.30;;;;;;;13.19;24.51;99687.21;106256;1271;22569;-76
2022/03/22 17:26:22;;;;;;;58.70;49.90;;;;;;;12.81;24.92;99690.17;106355;1272;22754;-76
2022/03/22 17:28:51;;;;;;;54.20;47.80;;;;;;;12.45;26.26;99693.48;106077;1272;22553;-75
2022/03/22 17:31:21;;;;;;;53.20;46.70;;;;;;;12.14;25.40;99688.63;106245;1271;22547;-76
2022/03/22 17:33:50;;;;;;;56.90;48.30;;;;;;;11.85;25.06;99689.95;106534;1271;22838;-78
2022/03/22 17:36:23;;;;;;;64.50;57.70;;;;;;;11.56;25.43;99686.17;106363;1271;24831;-79
2022/03/22 17:38:53;;;;;;;94.10;72.80;;;;;;;11.24;25.61;99688.40;106606;1271;22606;-78
2022/03/22 17:41:22;;;;;;;128.80;87.30;;;;;;;10.97;26.42;99684.95;106533;1268;24671;-78
2022/03/22 17:43:52;;;;;;;148.80;96.40;;;;;;;10.72;26.38;99690.11;106547;1271;22569;-78
2022/03/22 17:46:21;;;;;;;143.30;96.00;;;;;;;10.48;27.13;99692.16;106608;1271;22800;-78
2022/03/22 17:48:50;;;;;;;156.90;103.80;;;;;;;10.28;27.22;99690.42;106476;1271;22780;-78
2022/03/22 17:51:18;;;;;;;130.70;93.50;;;;;;;10.12;27.98;99692.48;106817;1272;23216;-78
2022/03/22 17:53:46;;;;;;;120.70;91.20;;;;;;;10.00;29.29;99695.08;106418;1271;22838;-81
2022/03/22 17:56:14;;;;;;;110.20;82.40;;;;;;;9.92;28.19;99695.52;106537;1271;22688;-81
2022/03/22 17:58:42;;;;;;;102.90;77.80;;;;;;;9.82;28.17;99696.04;106350;1271;22547;-77
2022/03/22 18:01:12;;;;;;;86.70;77.30;;;;;;;9.68;28.49;99695.43;106134;1271;24386;-76
2022/03/22 18:03:40;;;;;;;93.70;78.20;;;;;;;9.53;28.71;99692.59;106321;1271;22686;-77
2022/03/22 18:06:08;;;;;;;88.70;67.60;;;;;;;9.44;29.51;99697.40;106491;1271;24077;-80
2022/03/22 18:08:36;;;;;;;67.00;60.10;;;;;;;9.37;29.54;99696.77;106538;1271;25338;-82
2022/03/22 18:13:51;;;;;;;75.50;62.60;;;;;;;9.25;30.38;99697.39;106234;1271;23085;-79
2022/03/22 18:16:19;;;;;;;69.00;61.80;;;;;;;9.18;29.88;99700.46;106578;1271;25356;-79
2022/03/22 18:19:05;;;;;;;67.60;60.60;;;;;;;9.00;29.97;99693.94;106598;1271;22522;-84
2022/03/22 18:21:33;;;;;;;75.40;66.20;;;;;;;8.86;30.15;99694.36;106261;1271;24229;-78
2022/03/22 18:24:01;;;;;;;69.80;61.80;;;;;;;8.76;30.84;99697.15;106242;1271;22695;-78
2022/03/22 18:26:29;;;;;;;68.10;60.80;;;;;;;8.75;30.93;99697.11;106337;1271;25210;-79
2022/03/22 18:28:56;;;;;;;65.90;59.10;;;;;;;8.75;31.49;99695.89;106540;1271;25376;-79
2022/03/22 18:31:26;;;;;;;64.20;57.70;;;;;;;8.78;30.95;99697.23;106472;1271;25242;-78
2022/03/22 18:33:55;;;;;;;65.10;58.30;;;;;;;8.80;31.79;99699.05;106532;1271;22586;-79
2022/03/22 18:36:23;;;;;;;60.00;53.50;;;;;;;8.80;31.27;99695.21;106885;1271;22537;-79
2022/03/22 18:38:52;;;;;;;64.50;55.60;;;;;;;8.75;30.73;99695.61;106193;1272;27289;-78
2022/03/22 18:41:20;;;;;;;59.30;53.30;;;;;;;8.69;30.33;99699.12;106253;1271;25298;-79
2022/03/22 18:43:48;;;;;;;61.30;55.00;;;;;;;8.62;30.23;99698.52;106566;1271;23303;-78
2022/03/22 18:46:16;;;;;;;57.40;51.10;;;;;;;8.55;31.15;99698.11;106493;1271;22602;-78
2022/03/22 18:48:44;;;;;;;54.40;48.10;;;;;;;8.49;31.23;99699.77;106462;1271;22699;-78
2022/03/22 18:51:14;;;;;;;52.70;47.20;;;;;;;8.46;32.01;99695.19;106534;1271;25662;-79
2022/03/22 18:53:42;;;;;;;57.50;50.50;;;;;;;8.41;31.53;99696.41;106434;1272;22655;-79
2022/03/22 18:56:13;;;;;;;54.50;48.30;;;;;;;8.34;31.41;99690.49;106349;1271;22620;-79
2022/03/22 18:58:43;;;;;;;64.40;51.50;;;;;;;8.24;31.64;99693.05;106348;1271;24411;-77
2022/03/22 19:01:12;;;;;;;55.80;50.00;;;;;;;8.13;31.85;99694.11;106528;1271;22842;-80
2022/03/22 19:03:42;;;;;;;61.10;54.60;;;;;;;8.04;31.93;99693.08;106470;1271;22560;-79
2022/03/22 19:06:11;;;;;;;56.30;50.60;;;;;;;7.96;32.72;99697.00;106588;1271;22779;-78
2022/03/22 19:08:39;;;;;;;57.70;49.90;;;;;;;7.88;32.74;99693.30;106325;1271;25325;-79
2022/03/22 19:11:09;;;;;;;54.10;47.70;;;;;;;7.84;33.26;99696.06;106267;1271;22570;-79
2022/03/22 19:13:39;;;;;;;53.50;47.70;;;;;;;7.81;33.00;99693.95;106468;1271;22530;-79
2022/03/22 19:18:57;;;;;;;55.10;49.40;;;;;;;7.84;32.52;99693.48;106459;1271;22665;-78
2022/03/22 19:21:25;;;;;;;52.50;47.00;;;;;;;7.86;32.61;99698.14;107301;1271;22571;-80
2022/03/22 19:23:54;;;;;;;57.80;51.70;;;;;;;7.90;32.67;99698.80;106381;1271;22565;-79
2022/03/22 19:26:23;;;;;;;57.20;51.40;;;;;;;7.92;32.69;99698.48;106352;1271;25618;-79
2022/03/22 19:28:51;;;;;;;60.80;54.20;;;;;;;7.93;32.63;99695.92;106385;1271;22706;-79
2022/03/22 19:34:10;;;;;;;58.90;52.80;;;;;;;7.92;32.83;99698.80;106032;1271;22704;-79
2022/03/22 19:36:39;;;;;;;55.20;49.40;;;;;;;7.91;33.15;99696.96;106276;1274;25618;-78
2022/03/22 19:39:07;;;;;;;55.70;50.20;;;;;;;7.91;32.99;99694.58;106278;1271;22663;-78
2022/03/22 19:41:35;;;;;;;53.70;48.20;;;;;;;7.91;33.23;99696.68;106085;1271;22564;-78
2022/03/22 19:44:03;;;;;;;58.80;46.50;;;;;;;7.92;33.46;99692.09;106030;1271;24291;-79
2022/03/22 19:46:35;;;;;;;54.50;49.00;;;;;;;7.92;33.57;99690.26;106367;1271;25405;-79
2022/03/22 19:49:06;;;;;;;54.70;49.20;;;;;;;7.92;33.64;99686.14;106324;1271;24305;-79
2022/03/22 19:51:35;;;;;;;56.50;48.20;;;;;;;7.91;33.59;99684.50;106402;1271;22718;-79
2022/03/22 19:54:04;;;;;;;49.30;44.20;;;;;;;7.91;33.79;99685.46;106393;1271;24440;-76
2022/03/22 19:56:31;;;;;;;49.10;44.30;;;;;;;7.90;33.89;99688.40;106081;1271;24482;-75
2022/03/22 19:58:59;;;;;;;51.70;46.10;;;;;;;7.89;34.00;99687.68;106302;1271;24300;-77
2022/03/22 20:01:27;;;;;;;53.50;48.10;;;;;;;7.89;33.95;99685.00;106109;1271;24387;-77
2022/03/22 20:03:56;;;;;;;53.00;47.80;;;;;;;7.90;33.95;99687.20;106196;1271;22606;-78
2022/03/22 20:06:35;;;;;;;55.50;49.70;;;;;;;7.91;33.95;99684.92;106090;1271;22547;-79
2022/03/22 20:09:04;;;;;;;56.50;50.50;;;;;;;7.92;33.92;99682.70;106096;1271;22565;-78
2022/03/22 20:11:33;;;;;;;58.60;50.70;;;;;;;7.92;34.07;99684.79;106175;1271;22566;-77
2022/03/22 20:14:01;;;;;;;62.40;55.80;;;;;;;7.90;34.29;99685.60;106185;1271;22690;-78
2022/03/22 20:16:31;;;;;;;75.10;62.30;;;;;;;7.89;34.29;99681.51;106175;1271;26692;-77
2022/03/22 20:18:59;;;;;;;72.40;63.30;;;;;;;7.86;34.36;99684.23;106269;1271;22554;-78
2022/03/22 20:21:27;;;;;;;64.80;57.60;;;;;;;7.84;34.39;99683.70;106065;1271;22782;-78
2022/03/22 20:23:55;;;;;;;65.00;58.20;;;;;;;7.81;34.69;99684.07;106357;1271;22588;-80
2022/03/22 20:26:23;;;;;;;59.20;53.30;;;;;;;7.80;34.66;99684.11;106641;1271;24238;-80
2022/03/22 20:28:50;;;;;;;61.20;54.90;;;;;;;7.79;34.68;99685.91;106458;1271;25439;-77
2022/03/22 20:31:19;;;;;;;59.00;52.70;;;;;;;7.77;34.75;99685.40;106452;1271;22697;-78
2022/03/22 20:33:48;;;;;;;62.80;56.40;;;;;;;7.76;34.74;99686.55;106353;1271;22661;-78
2022/03/22 20:36:16;;;;;;;154.70;103.70;;;;;;;7.73;34.83;99682.67;106584;1270;24230;-78
2022/03/22 20:38:44;;;;;;;172.80;111.00;;;;;;;7.69;34.88;99681.24;106093;1271;22998;-78
2022/03/22 20:41:13;;;;;;;212.90;133.90;;;;;;;7.64;34.76;99676.65;106644;1271;23398;-78
2022/03/22 20:43:41;;;;;;;266.00;166.90;;;;;;;7.56;35.00;99679.10;106094;1271;22553;-79
2022/03/22 20:46:10;;;;;;;356.20;218.40;;;;;;;7.46;35.11;99678.34;106210;1271;25653;-77
2022/03/22 20:48:38;;;;;;;320.80;196.20;;;;;;;7.35;35.31;99676.90;106240;1271;22778;-77
2022/03/22 20:51:06;;;;;;;323.20;198.60;;;;;;;7.22;35.41;99675.71;106144;1271;26667;-76
2022/03/22 20:53:37;;;;;;;342.10;217.80;;;;;;;7.09;35.54;99673.15;106232;1271;25589;-76
2022/03/22 20:59:04;;;;;;;259.50;159.00;;;;;;;6.81;35.74;99674.21;106570;1271;22714;-79
2022/03/22 21:01:34;;;;;;;255.50;164.50;;;;;;;6.69;36.04;99669.87;106678;1271;22649;-79
2022/03/22 21:04:04;;;;;;;255.10;169.00;;;;;;;6.58;35.89;99671.92;106771;1271;22765;-78
2022/03/22 21:06:32;;;;;;;263.20;168.10;;;;;;;6.50;36.32;99669.98;106338;1271;22722;-78
2022/03/22 21:09:01;;;;;;;258.60;163.30;;;;;;;6.43;36.18;99666.70;106215;1271;24241;-78
2022/03/22 21:11:32;;;;;;;246.10;151.20;;;;;;;6.38;36.57;99662.87;106190;1271;23958;-79
2022/03/22 21:14:01;;;;;;;248.30;151.10;;;;;;;6.34;36.56;99662.75;106111;1271;22540;-76
2022/03/22 21:16:35;;;;;;;245.50;147.60;;;;;;;6.30;36.80;99663.52;106195;1271;24230;-77
2022/03/22 21:19:04;;;;;;;270.90;166.10;;;;;;;6.25;36.60;99665.98;106127;1274;25258;-76
2022/03/22 21:21:32;;;;;;;261.80;169.60;;;;;;;6.21;36.78;99665.79;106493;1271;27872;-75
2022/03/22 21:24:00;;;;;;;200.00;123.20;;;;;;;6.15;36.83;99663.27;106144;1273;22549;-77
2022/03/22 21:26:28;;;;;;;224.80;140.30;;;;;;;6.07;36.85;99659.38;106188;1271;24443;-77
2022/03/22 21:28:57;;;;;;;233.20;138.60;;;;;;;6.00;37.25;99663.73;106124;1271;23301;-79
2022/03/22 21:31:25;;;;;;;202.80;121.60;;;;;;;5.93;37.15;99660.37;106105;1271;22582;-78
2022/03/22 21:33:52;;;;;;;232.30;138.50;;;;;;;5.89;37.37;99656.56;106161;1271;22683;-76
2022/03/22 21:36:21;;;;;;;247.10;135.50;;;;;;;5.87;37.44;99652.90;106086;1271;25445;-78
2022/03/22 21:38:49;;;;;;;251.30;137.80;;;;;;;5.84;37.64;99653.75;106096;1271;24251;-78
2022/03/22 21:41:18;;;;;;;232.00;131.60;;;;;;;5.81;37.70;99652.47;106665;1271;22656;-77
2022/03/22 21:43:48;;;;;;;169.20;101.00;;;;;;;5.80;37.82;99654.20;106611;1271;22684;-77
2022/03/22 21:46:16;;;;;;;204.80;113.20;;;;;;;5.83;37.88;99647.55;106644;1271;22560;-77
2022/03/22 21:48:44;;;;;;;190.50;111.80;;;;;;;5.86;37.68;99654.05;106184;1271;25464;-78
2022/03/22 21:51:14;;;;;;;155.20;89.20;;;;;;;5.88;37.81;99650.36;106547;1271;22785;-78
2022/03/22 21:53:43;;;;;;;94.00;68.90;;;;;;;5.92;38.16;99648.30;106595;1270;24312;-77
2022/03/22 21:56:11;;;;;;;51.80;42.30;;;;;;;6.01;37.92;99645.88;106539;1271;25375;-78
2022/03/22 21:58:39;;;;;;;53.80;45.10;;;;;;;6.11;38.00;99642.73;106105;1274;23171;-78
2022/03/22 22:01:08;;;;;;;52.70;43.10;;;;;;;6.21;37.94;99639.14;106154;1271;24612;-79
2022/03/22 22:03:37;;;;;;;40.50;36.10;;;;;;;6.36;37.99;99635.67;106257;1271;25492;-76
2022/03/22 22:06:05;;;;;;;42.90;34.10;;;;;;;6.53;37.83;99635.83;106610;1271;22550;-78
2022/03/22 22:08:33;;;;;;;32.10;28.70;;;;;;;6.68;37.78;99635.89;106681;1271;22698;-79
2022/03/22 22:11:01;;;;;;;33.20;29.80;;;;;;;6.82;37.71;99629.59;106646;1271;24245;-79
2022/03/22 22:13:29;;;;;;;31.20;27.90;;;;;;;6.95;37.78;99626.98;106652;1269;22543;-83
2022/03/22 22:15:57;;;;;;;29.80;26.70;;;;;;;7.06;37.94;99624.54;106667;1273;25324;-79
2022/03/22 22:18:27;;;;;;;33.20;29.50;;;;;;;7.18;37.95;99621.59;106226;1271;22614;-83
2022/03/22 22:20:56;;;;;;;31.30;27.70;;;;;;;7.30;37.93;99621.25;106267;1271;25372;-78
2022/03/22 22:23:25;;;;;;;35.50;28.90;;;;;;;7.39;37.88;99622.78;106774;1271;23485;-78
2022/03/22 22:25:54;;;;;;;32.90;29.40;;;;;;;7.45;37.87;99618.66;106829;1271;22622;-79
2022/03/22 22:28:22;;;;;;;33.90;28.80;;;;;;;7.50;37.84;99614.92;106639;1271;24427;-79
2022/03/22 22:30:50;;;;;;;40.30;36.30;;;;;;;7.53;37.72;99620.45;106640;1271;24093;-78
2022/03/22 22:36:06;;;;;;;33.80;30.30;;;;;;;7.56;37.81;99612.05;106671;1271;22659;-77
2022/03/22 22:38:34;;;;;;;36.40;32.70;;;;;;;7.58;37.88;99613.45;106215;1271;25323;-74
2022/03/22 22:41:02;;;;;;;32.20;28.80;;;;;;;7.59;37.99;99613.92;106247;1271;24431;-78
2022/03/22 22:43:31;;;;;;;32.70;29.20;;;;;;;7.58;37.87;99608.96;106664;1271;22594;-77
2022/03/22 22:45:59;;;;;;;33.50;28.70;;;;;;;7.56;37.93;99605.58;106682;1271;24347;-76
2022/03/22 22:48:27;;;;;;;37.60;31.90;;;;;;;7.50;38.05;99602.84;106539;1271;23238;-78
2022/03/22 22:50:56;;;;;;;35.00;31.00;;;;;;;7.40;38.00;99604.77;106481;1270;22694;-78
2022/03/22 22:53:24;;;;;;;38.00;34.00;;;;;;;7.31;37.99;99602.66;106712;1271;22701;-77
2022/03/22 22:55:52;;;;;;;33.30;29.80;;;;;;;7.24;38.37;99598.91;106744;1270;26654;-76
2022/03/22 22:58:20;;;;;;;33.10;29.70;;;;;;;7.21;38.40;99600.13;106151;1270;22582;-77
2022/03/22 23:01:00;;;;;;;35.90;31.90;;;;;;;7.19;38.39;99601.20;106756;1271;22717;-77
2022/03/22 23:03:31;;;;;;;40.70;36.40;;;;;;;7.12;38.70;99596.29;106713;1271;22719;-77
2022/03/22 23:06:01;;;;;;;55.30;49.40;;;;;;;7.06;39.07;99594.92;106639;1271;22522;-77
2022/03/22 23:11:17;;;;;;;136.50;98.50;;;;;;;7.02;38.73;99596.81;106155;1271;25399;-76
2022/03/22 23:13:47;;;;;;;51.10;46.00;;;;;;;6.97;38.61;99597.47;106611;1270;22643;-74
2022/03/22 23:16:16;;;;;;;40.70;36.60;;;;;;;6.90;38.66;99593.97;106884;1271;22549;-77
2022/03/22 23:18:45;;;;;;;38.80;34.70;;;;;;;6.78;38.65;99594.63;106194;1271;22784;-75
2022/03/22 23:21:13;;;;;;;44.90;36.50;;;;;;;6.65;38.90;99590.18;106881;1271;22521;-79
2022/03/22 23:23:41;;;;;;;41.60;37.20;;;;;;;6.50;38.76;99592.65;106269;1271;22657;-77
2022/03/22 23:26:10;;;;;;;47.90;43.10;;;;;;;6.36;38.94;99587.80;107586;1271;23948;-80
2022/03/22 23:28:39;;;;;;;48.40;43.30;;;;;;;6.22;39.20;99584.46;107363;1271;24326;-77
2022/03/22 23:31:08;;;;;;;46.10;41.20;;;;;;;6.08;38.88;99580.68;107207;1271;23291;-79
2022/03/22 23:33:36;;;;;;;43.60;38.80;;;;;;;5.96;39.47;99580.40;106426;1271;22679;-75
2022/03/22 23:36:04;;;;;;;41.20;36.80;;;;;;;5.89;39.61;99577.83;106243;1271;22704;-76
2022/03/22 23:38:32;;;;;;;39.80;35.50;;;;;;;5.86;39.85;99571.41;106476;1271;22620;-78
2022/03/22 23:41:00;;;;;;;34.60;31.20;;;;;;;5.86;39.92;99573.75;106437;1271;24302;-78
2022/03/22 23:43:28;;;;;;;34.60;30.90;;;;;;;5.89;40.15;99572.06;106927;1271;22544;-74
2022/03/22 23:45:56;;;;;;;33.90;30.40;;;;;;;5.96;40.12;99569.95;106434;1271;22678;-76
2022/03/22 23:48:24;;;;;;;33.90;30.30;;;;;;;6.03;40.30;99568.57;106445;1271;25423;-78
2022/03/22 23:50:53;;;;;;;34.60;30.80;;;;;;;6.11;40.26;99563.58;106194;1271;25440;-79
2022/03/22 23:53:21;;;;;;;34.80;31.20;;;;;;;6.20;40.31;99559.51;106570;1271;22874;-78
2022/03/22 23:55:49;;;;;;;38.40;34.60;;;;;;;6.26;40.27;99561.22;106152;1271;22914;-76
2022/03/22 23:58:17;;;;;;;43.60;39.00;;;;;;;6.30;40.48;99558.31;106308;1271;23527;-78
